Time;durP1;ratioP1;P1;durP2;ratioP2;P2;SDS_P1;SDS_P2;PMS_P1;PMS_P2;Temp;Humidity;BMP_temperature;BMP_pressure;BME280_temperature;BME280_humidity;BME280_pressure;Samples;Min_cycle;Max_cycle;Signal;HPM_P1;HPM_P2
2020/12/31 00:01:36;;;;;;;34.75;19.92;;;1.70;99.90;;;;;;5023591;28;20041;-69
2020/12/31 00:04:02;;;;;;;36.92;20.90;;;1.60;99.90;;;;;;5021676;28;20161;-70
2020/12/31 00:06:29;;;;;;;29.13;16.85;;;1.60;99.90;;;;;;5012631;28;20054;-69
2020/12/31 00:08:55;;;;;;;31.60;13.88;;;1.70;99.90;;;;;;5023627;28;20132;-69
2020/12/31 00:11:21;;;;;;;30.40;16.95;;;1.60;99.90;;;;;;5029249;28;20057;-69
2020/12/31 00:13:48;;;;;;;31.80;17.20;;;1.60;99.90;;;;;;5030382;28;20661;-69
2020/12/31 00:16:15;;;;;;;32.30;16.70;;;1.70;99.90;;;;;;5034787;28;20529;-69
2020/12/31 00:18:41;;;;;;;26.08;13.68;;;1.60;99.90;;;;;;5034395;28;20149;-69
2020/12/31 00:21:07;;;;;;;29.90;16.42;;;1.60;99.90;;;;;;5030965;28;20051;-67
2020/12/31 00:23:34;;;;;;;31.08;16.52;;;1.60;99.90;;;;;;5014873;28;20237;-70
2020/12/31 00:26:00;;;;;;;26.58;15.15;;;1.60;99.90;;;;;;5024953;28;20133;-69
2020/12/31 00:28:26;;;;;;;24.63;14.43;;;1.60;99.90;;;;;;5029959;28;20141;-69
2020/12/31 00:30:53;;;;;;;26.50;15.30;;;1.60;99.90;;;;;;5029789;28;20057;-69
2020/12/31 00:33:20;;;;;;;27.48;14.75;;;1.60;99.90;;;;;;5026492;28;20108;-69
2020/12/31 00:36:05;;;;;;;27.52;14.30;;;1.60;99.90;;;;;;5030812;28;20191;-69
2020/12/31 00:38:32;;;;;;;24.27;13.98;;;1.70;99.90;;;;;;5028794;28;20070;-70
2020/12/31 00:40:59;;;;;;;24.67;14.93;;;1.60;99.90;;;;;;5025635;28;20107;-70
2020/12/31 00:43:25;;;;;;;23.85;14.63;;;1.60;99.90;;;;;;5031185;28;20136;-70
2020/12/31 00:45:52;;;;;;;26.35;14.85;;;1.60;99.90;;;;;;5030694;28;20136;-69
2020/12/31 00:48:18;;;;;;;26.20;13.50;;;1.60;99.90;;;;;;5030598;28;20304;-68
2020/12/31 00:50:44;;;;;;;25.25;13.20;;;1.60;99.90;;;;;;5024898;28;20108;-68
2020/12/31 00:53:11;;;;;;;26.23;13.23;;;1.60;99.90;;;;;;5029063;28;20073;-68
2020/12/31 00:55:37;;;;;;;21.20;11.10;;;1.60;99.90;;;;;;5019323;28;20079;-68
2020/12/31 00:58:04;;;;;;;20.35;9.77;;;1.60;99.90;;;;;;5030733;28;20133;-68
2020/12/31 01:00:31;;;;;;;24.05;11.27;;;1.60;99.90;;;;;;5024167;28;20057;-68
2020/12/31 01:02:58;;;;;;;23.27;11.48;;;1.60;99.90;;;;;;5023060;28;20169;-68
2020/12/31 01:05:25;;;;;;;21.15;10.75;;;1.50;99.90;;;;;;5029758;28;20587;-69
2020/12/31 01:07:54;;;;;;;20.52;10.80;;;1.50;99.90;;;;;;5029544;28;20557;-70
2020/12/31 01:10:20;;;;;;;20.80;11.48;;;1.50;99.90;;;;;;5029384;28;20069;-69
2020/12/31 01:12:47;;;;;;;18.88;10.75;;;1.50;99.90;;;;;;5021461;28;20053;-69
2020/12/31 01:15:13;;;;;;;22.73;11.70;;;1.50;99.90;;;;;;5018987;28;20124;-69
2020/12/31 01:17:40;;;;;;;26.63;12.38;;;1.40;99.90;;;;;;5020114;28;20321;-69
2020/12/31 01:20:07;;;;;;;23.90;11.93;;;1.50;99.90;;;;;;5029942;28;20057;-69
2020/12/31 01:22:34;;;;;;;20.40;10.63;;;1.40;99.90;;;;;;5029351;28;20129;-70
2020/12/31 01:25:02;;;;;;;22.67;10.93;;;1.40;99.90;;;;;;5030482;28;20049;-69
2020/12/31 01:27:28;;;;;;;20.25;11.10;;;1.50;99.90;;;;;;5026649;28;20084;-70
2020/12/31 01:29:54;;;;;;;21.20;10.02;;;1.40;99.90;;;;;;5021124;28;20145;-69
2020/12/31 01:32:24;;;;;;;20.25;9.90;;;1.30;99.90;;;;;;5025145;28;20128;-68
2020/12/31 01:34:54;;;;;;;22.33;11.82;;;1.20;99.90;;;;;;5029861;28;20156;-68
2020/12/31 01:37:21;;;;;;;21.83;11.30;;;1.30;99.90;;;;;;5027489;28;20133;-68
2020/12/31 01:39:48;;;;;;;20.92;11.65;;;1.20;99.90;;;;;;5029944;28;20124;-68
2020/12/31 01:42:15;;;;;;;21.52;11.48;;;1.30;99.90;;;;;;5027017;28;20045;-68
2020/12/31 01:44:42;;;;;;;20.55;10.00;;;1.20;99.90;;;;;;5027454;28;20064;-68
2020/12/31 01:47:11;;;;;;;18.98;10.23;;;1.30;99.90;;;;;;5010921;28;20073;-68
2020/12/31 01:49:39;;;;;;;25.88;12.57;;;1.20;99.90;;;;;;5020543;28;20132;-69
2020/12/31 01:52:06;;;;;;;17.80;9.82;;;1.20;99.90;;;;;;5028129;28;20168;-68
2020/12/31 01:54:33;;;;;;;18.15;8.80;;;1.20;99.90;;;;;;5029619;28;20081;-68
2020/12/31 01:57:00;;;;;;;15.60;9.30;;;1.30;99.90;;;;;;5018316;28;20405;-68
2020/12/31 01:59:26;;;;;;;15.13;9.25;;;1.20;99.90;;;;;;5023615;28;20479;-68
2020/12/31 02:01:53;;;;;;;18.58;8.95;;;1.20;99.90;;;;;;5025735;28;20053;-70
2020/12/31 02:04:20;;;;;;;15.02;8.05;;;1.20;99.90;;;;;;5024989;28;20077;-70
2020/12/31 02:06:48;;;;;;;12.32;6.75;;;1.20;99.90;;;;;;5019808;28;20077;-70
2020/12/31 02:09:14;;;;;;;11.20;6.15;;;1.20;99.90;;;;;;5028497;28;20140;-70
2020/12/31 02:11:41;;;;;;;14.25;7.70;;;1.20;99.90;;;;;;5028823;28;20045;-70
2020/12/31 02:14:07;;;;;;;10.27;6.07;;;1.20;99.90;;;;;;5028974;28;20073;-70
2020/12/31 02:16:37;;;;;;;13.80;7.82;;;1.20;99.90;;;;;;5029487;28;20077;-70
2020/12/31 02:19:07;;;;;;;19.02;7.53;;;1.20;99.90;;;;;;5028240;28;20045;-70
2020/12/31 02:21:37;;;;;;;11.93;5.03;;;1.20;99.90;;;;;;5017821;28;20458;-70
2020/12/31 02:24:07;;;;;;;9.88;5.55;;;1.20;99.90;;;;;;5029352;28;20061;-69
2020/12/31 02:26:35;;;;;;;13.07;6.65;;;1.20;99.90;;;;;;5021956;28;20099;-70
2020/12/31 02:29:03;;;;;;;12.15;6.40;;;1.20;99.90;;;;;;5028107;28;20500;-70
2020/12/31 02:31:31;;;;;;;18.13;6.35;;;1.20;99.90;;;;;;5022209;28;20099;-69
2020/12/31 02:33:58;;;;;;;10.70;5.30;;;1.20;99.90;;;;;;5015820;28;20052;-70
2020/12/31 02:36:26;;;;;;;13.18;7.05;;;1.20;99.90;;;;;;5024769;28;20060;-70
2020/12/31 02:38:54;;;;;;;12.90;7.10;;;1.20;99.90;;;;;;5028468;28;20479;-70
2020/12/31 02:41:21;;;;;;;13.40;5.75;;;1.20;99.90;;;;;;5010509;28;20100;-69
2020/12/31 02:43:47;;;;;;;10.15;4.93;;;1.20;99.90;;;;;;5023886;28;20140;-70
2020/12/31 02:46:19;;;;;;;6.47;3.30;;;1.20;99.90;;;;;;5028324;28;20076;-70
2020/12/31 02:48:47;;;;;;;6.90;4.22;;;1.20;99.90;;;;;;5027256;28;20119;-68
2020/12/31 02:51:14;;;;;;;7.90;4.30;;;1.30;99.90;;;;;;5023874;28;20100;-69
2020/12/31 02:53:40;;;;;;;9.07;4.65;;;1.30;99.90;;;;;;5028495;28;20077;-70
2020/12/31 02:56:12;;;;;;;9.05;4.22;;;1.40;99.90;;;;;;5025034;28;20069;-69
2020/12/31 02:58:39;;;;;;;8.30;4.63;;;1.40;99.90;;;;;;5026276;28;20112;-70
2020/12/31 03:01:07;;;;;;;7.63;2.92;;;1.40;99.90;;;;;;5023078;28;20593;-69
2020/12/31 03:03:34;;;;;;;7.45;4.40;;;1.40;99.90;;;;;;5002241;28;20396;-69
2020/12/31 03:06:01;;;;;;;6.32;3.88;;;1.50;99.90;;;;;;5015625;28;20136;-70
2020/12/31 03:08:27;;;;;;;6.75;3.15;;;1.50;99.90;;;;;;5016984;28;20554;-69
2020/12/31 03:10:54;;;;;;;7.22;3.22;;;1.50;99.90;;;;;;5017676;28;20424;-69
2020/12/31 03:13:25;;;;;;;9.15;3.80;;;1.50;99.90;;;;;;5036959;28;20077;-69
2020/12/31 03:15:55;;;;;;;8.63;3.13;;;1.50;99.90;;;;;;5027447;28;20164;-69
2020/12/31 03:18:25;;;;;;;8.35;3.92;;;1.50;99.90;;;;;;5027806;28;20253;-68
2020/12/31 03:20:51;;;;;;;7.55;3.47;;;1.60;99.90;;;;;;5022439;28;21705;-69
2020/12/31 03:23:19;;;;;;;6.55;3.10;;;1.50;99.90;;;;;;5028434;28;20443;-69
2020/12/31 03:25:45;;;;;;;6.68;3.00;;;1.50;99.90;;;;;;5026191;28;20507;-69
2020/12/31 03:28:15;;;;;;;8.25;3.35;;;1.50;99.90;;;;;;5024438;28;20124;-69
2020/12/31 03:30:45;;;;;;;9.20;3.42;;;1.60;99.90;;;;;;5026992;28;20045;-68
2020/12/31 03:33:12;;;;;;;6.50;2.85;;;1.50;99.90;;;;;;5017353;28;20076;-69
2020/12/31 03:35:47;;;;;;;7.80;3.60;;;1.50;99.90;;;;;;5022158;28;20057;-69
2020/12/31 03:38:15;;;;;;;8.80;4.05;;;1.60;99.90;;;;;;5008916;28;20126;-69
2020/12/31 03:40:42;;;;;;;6.97;3.15;;;1.50;99.90;;;;;;5019700;28;20128;-69
2020/12/31 03:43:09;;;;;;;6.25;3.25;;;1.50;99.90;;;;;;5027357;28;20132;-69
2020/12/31 03:45:37;;;;;;;6.28;3.03;;;1.50;99.90;;;;;;5025256;28;20084;-69
2020/12/31 03:48:04;;;;;;;6.95;3.08;;;1.50;99.90;;;;;;5017220;28;20063;-69
2020/12/31 03:50:31;;;;;;;6.07;3.20;;;1.60;99.90;;;;;;5027069;28;20132;-69
2020/12/31 03:52:58;;;;;;;5.78;2.90;;;1.60;99.90;;;;;;5003274;28;20045;-69
2020/12/31 03:55:24;;;;;;;8.07;4.22;;;1.60;99.90;;;;;;5032589;28;20136;-69
2020/12/31 03:57:50;;;;;;;8.80;2.92;;;1.50;99.90;;;;;;5023974;28;20046;-69
2020/12/31 04:00:17;;;;;;;9.82;3.38;;;1.50;99.90;;;;;;5016302;28;20045;-68
2020/12/31 04:02:43;;;;;;;5.78;2.83;;;1.50;99.90;;;;;;5017017;28;20111;-69
2020/12/31 04:05:09;;;;;;;6.47;2.47;;;1.50;99.90;;;;;;5027862;28;20052;-68
2020/12/31 04:07:36;;;;;;;6.25;2.90;;;1.60;99.90;;;;;;5025884;28;20472;-68
2020/12/31 04:10:04;;;;;;;4.93;2.60;;;1.50;99.90;;;;;;5027569;28;20063;-69
2020/12/31 04:12:30;;;;;;;5.55;2.40;;;1.50;99.90;;;;;;5022529;28;20514;-69
2020/12/31 04:14:57;;;;;;;4.07;2.40;;;1.40;99.90;;;;;;5027130;28;20136;-69
2020/12/31 04:17:23;;;;;;;6.20;3.13;;;1.40;99.90;;;;;;5026503;28;20565;-69
2020/12/31 04:19:49;;;;;;;5.03;2.45;;;1.40;99.90;;;;;;5028020;28;20491;-69
2020/12/31 04:22:16;;;;;;;6.25;2.90;;;1.40;99.90;;;;;;5024997;28;20048;-68
2020/12/31 04:24:42;;;;;;;7.13;2.67;;;1.40;99.90;;;;;;5022607;28;20053;-69
2020/12/31 04:27:08;;;;;;;5.82;3.10;;;1.40;99.90;;;;;;5027751;28;20096;-69
2020/12/31 04:29:35;;;;;;;9.73;3.70;;;1.40;99.90;;;;;;5018441;28;20172;-68
2020/12/31 04:32:01;;;;;;;7.82;3.30;;;1.30;99.90;;;;;;5026633;28;20132;-68
2020/12/31 04:34:27;;;;;;;5.47;2.83;;;1.30;99.90;;;;;;5022172;28;20179;-69
2020/12/31 04:36:54;;;;;;;6.05;2.75;;;1.30;99.90;;;;;;5027082;28;20133;-69
2020/12/31 04:39:20;;;;;;;6.55;2.70;;;1.30;99.90;;;;;;5027583;28;20080;-69
2020/12/31 04:41:46;;;;;;;4.40;2.60;;;1.20;99.90;;;;;;5017052;28;20087;-69
2020/12/31 04:44:15;;;;;;;6.97;3.08;;;1.20;99.90;;;;;;5010757;28;20076;-69
2020/12/31 04:46:48;;;;;;;6.82;2.80;;;1.20;99.90;;;;;;5022839;28;20049;-69
2020/12/31 04:49:20;;;;;;;5.07;2.63;;;1.20;99.90;;;;;;5024931;28;20136;-69
2020/12/31 04:51:54;;;;;;;5.30;2.63;;;1.20;99.90;;;;;;5029640;28;20045;-69
2020/12/31 04:54:20;;;;;;;;;;;1.20;99.90;;;;;;5030011;28;20567;-69
2020/12/31 04:56:47;;;;;;;6.90;3.20;;;1.10;99.90;;;;;;5029271;28;20023;-69
2020/12/31 04:59:14;;;;;;;5.88;2.42;;;1.20;99.90;;;;;;5029111;28;20068;-69
2020/12/31 05:01:44;;;;;;;6.53;2.40;;;1.20;99.90;;;;;;5028584;28;20081;-69
2020/12/31 05:04:11;;;;;;;4.28;2.60;;;1.20;99.90;;;;;;5030333;28;20462;-69
2020/12/31 05:06:39;;;;;;;6.72;3.10;;;1.20;99.90;;;;;;5022474;28;20136;-69
2020/12/31 05:09:22;;;;;;;7.55;3.50;;;1.20;99.90;;;;;;5030893;28;20077;-69
2020/12/31 05:11:53;;;;;;;4.75;2.65;;;1.30;99.90;;;;;;5023406;28;20577;-69
2020/12/31 05:14:34;;;;;;;6.53;2.80;;;1.30;99.90;;;;;;5026461;28;20148;-69
2020/12/31 05:17:22;;;;;;;5.03;2.63;;;1.30;99.90;;;;;;5029057;28;20136;-69
2020/12/31 05:19:49;;;;;;;7.43;3.25;;;1.30;99.90;;;;;;5031210;28;20181;-69
2020/12/31 05:22:17;;;;;;;6.07;2.60;;;1.30;99.90;;;;;;5028817;28;20153;-69
2020/12/31 05:24:45;;;;;;;5.32;3.20;;;1.30;99.90;;;;;;5031036;28;20494;-69
2020/12/31 05:27:26;;;;;;;6.10;3.33;;;1.40;99.90;;;;;;5029025;28;20057;-69
2020/12/31 05:30:11;;;;;;;6.30;2.70;;;1.40;99.90;;;;;;5030154;28;20136;-68
2020/12/31 05:32:39;;;;;;;4.75;2.75;;;1.40;99.90;;;;;;5015041;28;20067;-69
2020/12/31 05:35:15;;;;;;;5.07;3.00;;;1.40;99.90;;;;;;5030489;28;20048;-69
2020/12/31 05:37:43;;;;;;;5.45;2.80;;;1.40;99.90;;;;;;5022550;28;20041;-69
2020/12/31 05:40:10;;;;;;;5.85;3.35;;;1.40;99.90;;;;;;5017773;28;20049;-69
2020/12/31 05:42:42;;;;;;;4.70;2.83;;;1.40;99.90;;;;;;5021418;28;20501;-69
2020/12/31 05:45:18;;;;;;;5.50;2.60;;;1.30;99.90;;;;;;5026651;28;20050;-69
2020/12/31 05:47:46;;;;;;;5.97;3.00;;;1.40;99.90;;;;;;5030227;28;20075;-69
2020/12/31 05:50:34;;;;;;;5.45;2.92;;;1.40;99.90;;;;;;5029238;28;20053;-69
2020/12/31 05:53:01;;;;;;;7.38;3.10;;;1.40;99.90;;;;;;5025414;28;20051;-69
2020/12/31 05:55:28;;;;;;;4.88;2.97;;;1.40;99.90;;;;;;5028599;28;20208;-69
2020/12/31 05:57:56;;;;;;;4.68;2.67;;;1.40;99.90;;;;;;5027854;28;20417;-69
2020/12/31 06:00:28;;;;;;;5.78;2.90;;;1.40;99.90;;;;;;5018917;28;20056;-68
2020/12/31 06:02:59;;;;;;;6.90;3.38;;;1.30;99.90;;;;;;5020572;28;20076;-69
2020/12/31 06:05:29;;;;;;;6.63;3.25;;;1.30;99.90;;;;;;5030562;28;20080;-69
2020/12/31 06:07:57;;;;;;;5.38;2.78;;;1.30;99.90;;;;;;5011439;28;20135;-69
2020/12/31 06:10:30;;;;;;;5.55;3.25;;;1.30;99.90;;;;;;4998420;28;20478;-68
2020/12/31 06:13:01;;;;;;;7.55;3.88;;;1.20;99.90;;;;;;5011675;28;20490;-68
2020/12/31 06:15:33;;;;;;;7.35;3.72;;;1.20;99.90;;;;;;5010338;28;20049;-68
2020/12/31 06:18:01;;;;;;;9.20;4.28;;;1.00;99.90;;;;;;5025173;28;20124;-68
2020/12/31 06:20:38;;;;;;;7.93;4.13;;;1.00;99.90;;;;;;5030167;28;20073;-68
2020/12/31 06:23:13;;;;;;;9.43;4.55;;;1.00;99.90;;;;;;5027613;28;20060;-70
2020/12/31 06:25:46;;;;;;;10.38;4.63;;;0.90;99.90;;;;;;5027762;28;20059;-70
2020/12/31 06:28:22;;;;;;;7.78;4.72;;;0.90;99.90;;;;;;5024912;28;20088;-70
2020/12/31 06:30:54;;;;;;;11.07;5.90;;;0.90;99.90;;;;;;5025155;28;20045;-69
2020/12/31 06:33:31;;;;;;;10.93;5.97;;;0.90;99.90;;;;;;5018436;28;20050;-70
2020/12/31 06:36:00;;;;;;;7.32;3.95;;;0.80;99.90;;;;;;5021872;28;20128;-70
2020/12/31 06:38:35;;;;;;;8.18;4.90;;;0.80;99.90;;;;;;5016951;28;20546;-70
2020/12/31 06:41:04;;;;;;;11.95;5.80;;;0.80;99.90;;;;;;5013899;28;20041;-69
2020/12/31 06:43:36;;;;;;;11.68;5.88;;;0.80;99.90;;;;;;5029105;28;20111;-68
2020/12/31 06:46:19;;;;;;;8.90;5.17;;;0.80;99.90;;;;;;5028153;28;20053;-71
2020/12/31 06:48:53;;;;;;;10.68;5.40;;;0.80;99.90;;;;;;5009494;28;20136;-68
2020/12/31 06:51:27;;;;;;;10.07;5.82;;;0.80;99.90;;;;;;5010887;28;20103;-68
2020/12/31 06:53:53;;;;;;;12.40;5.10;;;0.80;99.90;;;;;;5028491;28;20064;-70
2020/12/31 06:56:46;;;;;;;12.63;6.28;;;0.80;99.90;;;;;;5024706;28;20060;-68
2020/12/31 06:59:25;;;;;;;12.15;7.07;;;0.70;99.90;;;;;;5028310;28;20053;-70
2020/12/31 07:01:52;;;;;;;10.93;6.70;;;0.70;99.90;;;;;;5022704;28;20406;-70
2020/12/31 07:04:31;;;;;;;14.63;7.47;;;0.70;99.90;;;;;;5028009;28;20125;-68
2020/12/31 07:07:18;;;;;;;6.88;4.43;;;0.70;99.90;;;;;;5028464;28;20045;-70
2020/12/31 07:09:58;;;;;;;13.60;6.90;;;0.60;99.90;;;;;;5010576;28;20491;-68
2020/12/31 07:12:34;;;;;;;11.57;6.95;;;0.70;99.90;;;;;;5027046;28;20115;-68
2020/12/31 07:15:03;;;;;;;9.15;5.05;;;0.60;99.90;;;;;;5027797;28;20120;-68
2020/12/31 07:17:53;;;;;;;10.60;6.03;;;0.70;99.90;;;;;;5026395;28;20120;-68
2020/12/31 07:20:19;;;;;;;11.40;5.97;;;0.70;99.90;;;;;;5024474;28;20046;-68
2020/12/31 07:22:48;;;;;;;11.32;5.55;;;0.70;99.90;;;;;;5016872;28;20136;-70
2020/12/31 07:25:18;;;;;;;10.50;5.35;;;0.70;99.90;;;;;;5028356;28;20045;-68
2020/12/31 07:27:47;;;;;;;9.00;5.68;;;0.70;99.90;;;;;;5027673;28;20148;-69
2020/12/31 07:30:19;;;;;;;11.00;6.47;;;0.70;99.90;;;;;;5017907;28;20073;-70
2020/12/31 07:32:57;;;;;;;10.10;6.45;;;0.70;99.90;;;;;;5024121;28;20073;-70
2020/12/31 07:35:41;;;;;;;12.02;6.60;;;0.70;99.90;;;;;;5028358;28;20613;-69
2020/12/31 07:38:14;;;;;;;11.70;6.75;;;0.70;99.90;;;;;;5010753;28;20077;-70
2020/12/31 07:40:51;;;;;;;11.23;6.72;;;0.80;99.90;;;;;;5024650;28;20460;-69
2020/12/31 07:43:17;;;;;;;12.77;7.28;;;0.70;99.90;;;;;;5009236;28;20137;-70
2020/12/31 07:45:49;;;;;;;13.77;7.72;;;0.70;99.90;;;;;;5027713;28;20064;-70
2020/12/31 07:48:19;;;;;;;13.82;7.38;;;0.70;99.90;;;;;;5026460;28;20124;-70
2020/12/31 07:50:46;;;;;;;12.90;8.32;;;0.80;99.90;;;;;;5018098;28;20112;-70
2020/12/31 07:53:13;;;;;;;15.48;7.45;;;0.80;99.90;;;;;;5021451;28;20124;-70
2020/12/31 07:55:48;;;;;;;11.02;5.97;;;0.70;99.90;;;;;;5025788;28;20703;-70
2020/12/31 07:58:22;;;;;;;13.45;7.72;;;0.70;99.90;;;;;;5020236;28;20074;-70
2020/12/31 08:01:06;;;;;;;11.88;6.30;;;0.70;99.90;;;;;;5013130;28;20133;-70
2020/12/31 08:03:33;;;;;;;11.63;6.63;;;0.80;99.90;;;;;;5009472;28;20073;-70
2020/12/31 08:06:04;;;;;;;12.43;6.88;;;0.80;99.90;;;;;;5028211;28;20045;-70
2020/12/31 08:08:31;;;;;;;12.00;6.70;;;0.80;99.90;;;;;;5027353;28;20168;-70
2020/12/31 08:11:06;;;;;;;8.82;4.75;;;0.70;99.90;;;;;;5025584;28;20071;-70
2020/12/31 08:13:32;;;;;;;10.43;6.20;;;0.80;99.90;;;;;;5017346;28;20203;-70
2020/12/31 08:15:59;;;;;;;10.18;5.18;;;0.80;99.90;;;;;;5020898;28;20121;-70
2020/12/31 08:18:26;;;;;;;11.02;6.75;;;0.80;99.90;;;;;;5027659;28;20526;-70
2020/12/31 08:20:53;;;;;;;11.30;7.18;;;0.80;99.90;;;;;;5025665;28;20079;-70
2020/12/31 08:23:26;;;;;;;12.85;6.93;;;0.80;99.90;;;;;;5021396;28;20267;-70
2020/12/31 08:25:56;;;;;;;9.00;5.95;;;0.90;99.90;;;;;;5032182;28;20129;-70
2020/12/31 08:28:22;;;;;;;11.75;6.93;;;0.90;99.90;;;;;;5023933;28;20072;-70
2020/12/31 08:30:49;;;;;;;10.38;6.32;;;1.00;99.90;;;;;;5029734;28;20060;-70
2020/12/31 08:33:24;;;;;;;10.48;6.50;;;1.00;99.90;;;;;;5012076;28;20495;-68
2020/12/31 08:35:51;;;;;;;10.55;5.18;;;1.00;99.90;;;;;;5012243;28;20229;-70
2020/12/31 08:38:19;;;;;;;12.07;5.13;;;1.00;99.90;;;;;;5031864;28;20084;-70
2020/12/31 08:40:45;;;;;;;11.50;6.45;;;1.00;99.90;;;;;;5030335;28;20132;-70
2020/12/31 08:43:32;;;;;;;10.13;5.97;;;1.00;99.90;;;;;;5014890;28;20076;-69
2020/12/31 08:46:00;;;;;;;13.05;6.35;;;1.10;99.90;;;;;;5029003;28;20042;-70
2020/12/31 08:48:36;;;;;;;8.63;4.88;;;1.10;99.90;;;;;;5020724;28;20120;-70
2020/12/31 08:51:12;;;;;;;9.65;6.03;;;1.10;99.90;;;;;;5012893;28;20437;-70
2020/12/31 08:54:02;;;;;;;8.13;4.57;;;1.10;99.90;;;;;;5024087;28;20423;-70
2020/12/31 08:56:29;;;;;;;;;;;1.10;99.90;;;;;;5031106;28;20132;-67
2020/12/31 08:59:15;;;;;;;8.27;4.30;;;1.10;99.90;;;;;;5012510;28;19932;-70
2020/12/31 09:01:42;;;;;;;7.47;4.90;;;1.10;99.90;;;;;;5019905;28;20056;-70
2020/12/31 09:04:10;;;;;;;9.40;5.10;;;1.10;99.90;;;;;;5012326;28;20618;-69
2020/12/31 09:06:43;;;;;;;8.70;4.05;;;1.20;99.90;;;;;;5012567;28;20147;-70
2020/12/31 09:09:22;;;;;;;7.53;4.65;;;1.10;99.90;;;;;;5031237;28;20077;-69
2020/12/31 09:11:52;;;;;;;6.93;4.30;;;1.10;99.90;;;;;;5024199;28;20164;-69
2020/12/31 09:14:19;;;;;;;6.97;3.95;;;1.30;99.90;;;;;;5011297;28;20057;-70
2020/12/31 09:16:45;;;;;;;6.40;3.88;;;1.30;99.90;;;;;;5011624;28;20136;-70
2020/12/31 09:19:11;;;;;;;8.68;4.18;;;1.30;99.90;;;;;;5015987;28;20129;-69
2020/12/31 09:21:38;;;;;;;7.22;3.33;;;1.30;99.90;;;;;;5031214;28;20529;-70
2020/12/31 09:24:14;;;;;;;9.48;5.07;;;1.20;99.90;;;;;;5011570;28;20050;-70
2020/12/31 09:26:51;;;;;;;10.23;5.95;;;1.20;99.90;;;;;;5026841;28;20424;-70
2020/12/31 09:29:18;;;;;;;13.48;7.88;;;1.20;99.90;;;;;;5028810;28;20100;-70
2020/12/31 09:31:45;;;;;;;8.52;4.75;;;1.20;99.90;;;;;;5029522;28;20518;-71
2020/12/31 09:34:12;;;;;;;8.20;4.20;;;1.30;99.90;;;;;;5028977;28;20046;-71
2020/12/31 09:36:38;;;;;;;7.88;4.20;;;1.30;99.90;;;;;;5030877;28;20041;-71
2020/12/31 09:39:05;;;;;;;9.93;5.05;;;1.20;99.90;;;;;;5027080;28;20125;-69
2020/12/31 09:41:31;;;;;;;8.60;3.72;;;1.20;99.90;;;;;;5016751;28;20514;-69
2020/12/31 09:43:57;;;;;;;6.28;3.28;;;1.30;99.90;;;;;;5015065;28;20172;-69
2020/12/31 09:46:24;;;;;;;4.57;2.47;;;1.30;99.90;;;;;;5013585;28;20081;-70
2020/12/31 09:48:51;;;;;;;6.15;3.47;;;1.40;99.90;;;;;;4996797;28;20125;-70
2020/12/31 09:51:19;;;;;;;4.07;2.50;;;1.40;99.90;;;;;;5015965;28;20060;-69
2020/12/31 09:53:46;;;;;;;4.95;2.00;;;1.40;99.90;;;;;;5012642;28;20133;-70
2020/12/31 09:56:13;;;;;;;5.90;3.60;;;1.40;99.90;;;;;;5029280;28;20041;-69
2020/12/31 09:58:41;;;;;;;4.53;2.10;;;1.30;99.90;;;;;;5028421;28;20459;-70
2020/12/31 10:01:07;;;;;;;5.15;2.63;;;1.20;99.90;;;;;;5029537;28;20050;-70
2020/12/31 10:03:34;;;;;;;5.75;2.85;;;1.20;99.90;;;;;;5022944;28;20129;-70
2020/12/31 10:06:01;;;;;;;7.35;3.90;;;1.20;99.90;;;;;;5032799;28;20141;-70
2020/12/31 10:08:28;;;;;;;6.75;3.50;;;1.20;99.90;;;;;;5029298;28;20519;-70
2020/12/31 10:10:55;;;;;;;5.97;3.55;;;1.30;99.90;;;;;;5029647;28;20073;-70
2020/12/31 10:13:21;;;;;;;5.32;2.60;;;1.30;99.90;;;;;;5029937;28;20133;-74
2020/12/31 10:15:47;;;;;;;4.82;2.50;;;1.30;99.90;;;;;;5024099;28;20480;-72
2020/12/31 10:18:14;;;;;;;5.40;2.85;;;1.40;99.90;;;;;;5027988;28;20139;-71
2020/12/31 10:20:40;;;;;;;4.88;2.60;;;1.50;99.90;;;;;;5020990;28;20045;-71
2020/12/31 10:23:06;;;;;;;5.85;2.38;;;1.50;99.90;;;;;;5023540;28;20488;-71
2020/12/31 10:25:33;;;;;;;5.07;2.88;;;1.40;99.90;;;;;;5021775;28;20077;-71
2020/12/31 10:27:59;;;;;;;4.15;1.83;;;1.50;99.90;;;;;;5026333;28;20204;-71
2020/12/31 10:30:26;;;;;;;5.38;2.33;;;1.50;99.90;;;;;;5029351;28;20390;-70
2020/12/31 10:32:52;;;;;;;3.60;2.00;;;1.50;99.90;;;;;;5025793;28;20448;-70
2020/12/31 10:35:18;;;;;;;4.85;2.92;;;1.50;99.90;;;;;;5028981;28;20148;-70
2020/12/31 10:37:45;;;;;;;4.88;2.83;;;1.50;99.90;;;;;;5028802;28;20120;-70
2020/12/31 10:40:11;;;;;;;5.18;2.70;;;1.60;99.90;;;;;;5029022;28;20491;-71
2020/12/31 10:42:38;;;;;;;6.85;4.22;;;1.60;99.90;;;;;;5028000;28;20145;-71
2020/12/31 10:45:04;;;;;;;6.88;3.22;;;1.60;99.90;;;;;;5029162;28;20081;-73
2020/12/31 10:47:30;;;;;;;6.95;2.83;;;1.50;99.90;;;;;;5020248;28;20089;-71
2020/12/31 10:49:57;;;;;;;6.25;3.13;;;1.40;99.90;;;;;;5017217;28;20126;-71
2020/12/31 10:52:23;;;;;;;3.67;2.03;;;1.50;99.90;;;;;;5028434;28;20157;-71
2020/12/31 10:54:49;;;;;;;14.23;8.02;;;1.50;99.90;;;;;;5012852;28;20052;-71
2020/12/31 10:57:18;;;;;;;7.25;3.90;;;1.50;99.90;;;;;;5027769;28;20042;-70
2020/12/31 10:59:44;;;;;;;6.18;4.18;;;1.50;99.90;;;;;;5025567;28;20054;-69
2020/12/31 11:02:10;;;;;;;5.88;3.38;;;1.50;99.90;;;;;;5017580;28;20127;-70
2020/12/31 11:04:37;;;;;;;8.02;4.45;;;1.50;99.90;;;;;;5028807;28;20045;-70
2020/12/31 11:07:03;;;;;;;6.95;3.25;;;1.50;99.90;;;;;;5028167;28;20077;-70
2020/12/31 11:09:29;;;;;;;7.90;4.15;;;1.60;99.90;;;;;;5028795;28;20132;-70
2020/12/31 11:11:57;;;;;;;9.70;5.30;;;1.70;99.90;;;;;;5029348;28;20076;-70
2020/12/31 11:14:23;;;;;;;5.22;3.10;;;1.70;99.90;;;;;;5029043;28;20088;-70
2020/12/31 11:16:53;;;;;;;7.70;4.30;;;1.60;99.90;;;;;;5028028;28;20077;-70
2020/12/31 11:19:19;;;;;;;7.32;3.80;;;1.60;99.90;;;;;;5028565;28;20455;-70
2020/12/31 11:21:48;;;;;;;5.15;3.40;;;1.50;99.90;;;;;;5022951;28;20137;-70
2020/12/31 11:24:15;;;;;;;8.23;3.92;;;1.60;99.90;;;;;;5015667;28;20081;-71
2020/12/31 11:26:41;;;;;;;5.53;3.08;;;1.50;99.90;;;;;;5028633;28;20084;-70
2020/12/31 11:29:08;;;;;;;7.20;3.28;;;1.50;99.90;;;;;;5017190;28;20119;-70
2020/12/31 11:31:35;;;;;;;7.03;3.53;;;1.40;99.90;;;;;;5027781;28;20128;-70
2020/12/31 11:34:01;;;;;;;5.25;3.03;;;1.50;99.90;;;;;;5027914;28;20132;-70
2020/12/31 11:36:28;;;;;;;5.07;2.70;;;1.60;99.90;;;;;;5027234;28;20045;-70
2020/12/31 11:38:56;;;;;;;8.63;3.72;;;1.70;99.90;;;;;;5028062;28;20121;-70
2020/12/31 11:41:23;;;;;;;5.65;3.30;;;1.70;99.90;;;;;;5027318;28;20132;-70
2020/12/31 11:43:50;;;;;;;6.45;3.92;;;1.80;99.90;;;;;;5027135;28;20130;-69
2020/12/31 11:46:17;;;;;;;6.70;3.45;;;1.70;99.90;;;;;;5029061;28;20496;-70
2020/12/31 11:48:45;;;;;;;5.68;2.90;;;1.70;99.90;;;;;;5028435;28;20325;-70
2020/12/31 11:51:12;;;;;;;6.53;3.28;;;1.60;99.90;;;;;;5027151;28;20045;-71
2020/12/31 11:53:40;;;;;;;4.72;2.30;;;1.70;99.90;;;;;;5028557;28;20171;-71
2020/12/31 11:56:07;;;;;;;8.25;4.50;;;1.60;99.90;;;;;;5030809;28;20037;-70
2020/12/31 11:58:34;;;;;;;6.53;3.53;;;1.60;99.90;;;;;;5030941;28;20072;-70
2020/12/31 12:01:00;;;;;;;5.93;3.33;;;1.70;99.90;;;;;;5034262;28;20495;-72
2020/12/31 12:03:27;;;;;;;6.43;3.75;;;1.80;99.90;;;;;;5031653;28;20203;-71
2020/12/31 12:05:54;;;;;;;5.03;2.90;;;1.80;99.90;;;;;;5039031;28;20046;-71
2020/12/31 12:08:28;;;;;;;8.57;4.50;;;1.80;99.90;;;;;;5031439;28;20128;-71
2020/12/31 12:10:56;;;;;;;8.63;4.97;;;1.80;99.90;;;;;;5031378;28;20057;-70
2020/12/31 12:13:23;;;;;;;5.60;3.35;;;1.70;99.90;;;;;;5031497;28;20060;-70
2020/12/31 12:15:50;;;;;;;6.55;3.63;;;1.70;99.90;;;;;;5014575;28;20111;-70
2020/12/31 12:18:16;;;;;;;6.82;3.78;;;1.80;99.90;;;;;;5031664;28;20124;-70
2020/12/31 12:20:43;;;;;;;5.95;3.30;;;1.70;99.90;;;;;;5031669;28;20069;-70
2020/12/31 12:23:09;;;;;;;6.70;3.60;;;1.70;99.90;;;;;;5030944;28;20073;-71
2020/12/31 12:25:36;;;;;;;7.38;4.03;;;1.70;99.90;;;;;;5030597;28;20299;-70
2020/12/31 12:28:02;;;;;;;10.82;3.90;;;1.80;99.90;;;;;;5031265;28;20575;-70
2020/12/31 12:30:28;;;;;;;10.15;5.35;;;1.80;99.90;;;;;;5031935;28;20127;-69
2020/12/31 12:32:55;;;;;;;7.35;4.40;;;1.80;99.90;;;;;;5030705;28;20490;-70
2020/12/31 12:35:21;;;;;;;10.82;5.13;;;1.70;99.90;;;;;;5030735;28;20046;-70
2020/12/31 12:37:47;;;;;;;10.20;6.03;;;1.70;99.90;;;;;;5030283;28;20478;-70
2020/12/31 12:40:14;;;;;;;9.63;4.90;;;1.70;99.90;;;;;;5027626;28;20084;-70
2020/12/31 12:42:41;;;;;;;7.30;4.22;;;1.80;99.90;;;;;;5031141;28;20195;-70
2020/12/31 12:45:08;;;;;;;6.93;4.07;;;1.70;99.90;;;;;;5030513;28;20130;-70
2020/12/31 12:47:35;;;;;;;8.73;4.50;;;1.80;99.90;;;;;;5019404;28;20136;-70
2020/12/31 12:50:04;;;;;;;6.63;3.42;;;1.90;99.90;;;;;;5029844;28;20137;-70
2020/12/31 12:52:30;;;;;;;7.35;3.80;;;1.90;99.90;;;;;;5030524;28;20119;-70
2020/12/31 12:54:56;;;;;;;5.07;3.17;;;1.90;99.90;;;;;;5030336;28;20045;-70
2020/12/31 12:57:23;;;;;;;6.88;3.83;;;1.90;99.90;;;;;;5030138;28;20767;-70
2020/12/31 12:59:49;;;;;;;7.10;3.47;;;1.90;99.90;;;;;;5030825;28;20037;-70
2020/12/31 13:02:16;;;;;;;7.03;3.75;;;1.90;99.90;;;;;;5030585;28;20430;-70